Time;durP1;ratioP1;P1;durP2;ratioP2;P2;SDS_P1;SDS_P2;PMS_P1;PMS_P2;Temp;Humidity;BMP_temperature;BMP_pressure;BME280_temperature;BME280_humidity;BME280_pressure;Samples;Min_cycle;Max_cycle;Signal;HPM_P1;HPM_P2
2023/05/05 00:01:01;;;;;;;7.40;5.20;;;;;;;11.93;60.97;95342.31;5040929;28;20072;-75
2023/05/05 00:03:26;;;;;;;7.75;5.22;;;;;;;11.91;60.92;95339.22;5043947;28;20025;-75
2023/05/05 00:05:53;;;;;;;6.53;5.35;;;;;;;11.89;60.98;95347.91;5041698;28;20037;-73
2023/05/05 00:08:19;;;;;;;8.65;4.72;;;;;;;11.87;60.66;95344.84;5043135;28;20041;-73
2023/05/05 00:10:49;;;;;;;7.65;5.13;;;;;;;11.86;60.97;95342.50;5043945;28;20112;-74
2023/05/05 00:13:15;;;;;;;9.38;5.68;;;;;;;11.84;61.05;95342.94;5042234;28;20025;-73
2023/05/05 00:15:42;;;;;;;8.52;5.95;;;;;;;11.84;61.10;95339.41;5043749;28;20395;-74
2023/05/05 00:18:07;;;;;;;7.35;5.35;;;;;;;11.82;61.09;95339.84;5041470;28;20025;-74
2023/05/05 00:20:33;;;;;;;7.05;5.45;;;;;;;11.82;61.23;95336.31;5046992;28;20047;-74
2023/05/05 00:22:58;;;;;;;8.13;5.55;;;;;;;11.79;61.29;95348.94;5045443;28;20029;-74
2023/05/05 00:25:24;;;;;;;7.07;6.10;;;;;;;11.77;61.32;95343.09;5047238;28;20035;-74
2023/05/05 00:27:49;;;;;;;7.75;5.45;;;;;;;11.76;61.68;95343.53;5047546;28;20032;-74
2023/05/05 00:30:14;;;;;;;7.20;5.15;;;;;;;11.74;61.62;95332.94;5047982;28;20017;-74
2023/05/05 00:32:40;;;;;;;9.18;5.47;;;;;;;11.71;61.82;95333.81;5047297;28;20577;-75
2023/05/05 00:35:06;;;;;;;8.25;5.78;;;;;;;11.68;61.74;95337.44;5047225;28;20564;-73
2023/05/05 00:37:31;;;;;;;7.90;5.80;;;;;;;11.66;62.05;95339.88;5047403;28;20031;-73
2023/05/05 00:39:57;;;;;;;9.30;5.53;;;;;;;11.63;61.87;95335.97;5046422;28;20017;-73
2023/05/05 00:42:23;;;;;;;8.20;5.65;;;;;;;11.61;62.07;95337.63;5050023;28;20060;-74
2023/05/05 00:44:48;;;;;;;9.07;6.10;;;;;;;11.58;62.42;95341.25;5046591;28;20075;-73
2023/05/05 00:47:15;;;;;;;8.27;5.95;;;;;;;11.56;62.43;95349.16;5047146;28;20025;-73
2023/05/05 00:49:41;;;;;;;7.78;5.57;;;;;;;11.55;62.52;95347.63;5046521;28;20033;-74
2023/05/05 00:52:07;;;;;;;9.15;6.28;;;;;;;11.54;62.63;95349.59;5046861;28;20071;-74
2023/05/05 00:54:33;;;;;;;8.25;6.53;;;;;;;11.53;62.67;95352.81;5047043;28;20052;-74
2023/05/05 00:57:01;;;;;;;8.05;5.88;;;;;;;11.52;62.79;95348.47;5044866;28;20052;-74
2023/05/05 00:59:27;;;;;;;8.23;6.47;;;;;;;11.50;62.60;95348.91;5047024;28;20029;-74
2023/05/05 01:01:53;;;;;;;9.25;6.53;;;;;;;11.47;62.91;95335.25;5044399;28;20590;-74
2023/05/05 01:04:18;;;;;;;8.95;6.20;;;;;;;11.42;62.81;95337.31;5048099;28;20029;-73
2023/05/05 01:07:03;;;;;;;9.13;6.55;;;;;;;11.43;62.83;95338.09;5045351;28;20132;-73
2023/05/05 01:09:51;;;;;;;8.88;7.07;;;;;;;11.41;62.98;95337.75;5046447;28;20549;-75
2023/05/05 01:12:41;;;;;;;9.18;6.30;;;;;;;11.36;62.96;95339.06;5029838;28;20037;-75
2023/05/05 01:15:36;;;;;;;8.25;6.18;;;;;;;11.35;62.63;95334.72;5044817;28;20025;-74
2023/05/05 01:18:24;;;;;;;8.60;5.85;;;;;;;11.34;62.65;95333.19;5040554;28;20037;-72
2023/05/05 01:20:57;;;;;;;8.98;5.85;;;;;;;11.33;62.73;95334.41;5047686;28;20408;-73
2023/05/05 01:24:10;;;;;;;9.02;6.03;;;;;;;11.34;62.93;95338.69;5045891;28;20407;-74
2023/05/05 01:26:54;;;;;;;6.95;5.68;;;;;;;11.30;62.80;95337.25;5046031;28;20037;-74
2023/05/05 01:29:57;;;;;;;7.82;6.30;;;;;;;11.30;62.54;95329.78;5046061;28;20029;-74
2023/05/05 01:32:26;;;;;;;6.68;5.28;;;;;;;11.29;62.30;95330.97;5045859;28;20033;-73
2023/05/05 01:34:54;;;;;;;8.82;6.30;;;;;;;11.28;62.42;95334.91;5045871;28;20496;-73
2023/05/05 01:37:23;;;;;;;7.95;6.22;;;;;;;11.26;62.64;95328.31;5048443;28;20029;-74
2023/05/05 01:39:51;;;;;;;7.75;5.82;;;;;;;11.25;62.74;95332.28;5046309;28;20074;-75
2023/05/05 01:42:17;;;;;;;9.45;5.90;;;;;;;11.22;63.02;95322.88;5029465;28;20032;-73
2023/05/05 01:44:43;;;;;;;7.18;6.15;;;;;;;11.20;63.10;95319.81;5043879;28;20039;-74
2023/05/05 01:47:17;;;;;;;8.45;6.15;;;;;;;11.17;63.19;95317.91;5046125;28;20514;-74
2023/05/05 01:49:45;;;;;;;8.18;5.65;;;;;;;11.15;63.05;95312.06;5044592;28;20025;-73
2023/05/05 01:52:11;;;;;;;7.53;5.78;;;;;;;11.11;62.90;95312.16;5045289;28;20025;-73
2023/05/05 01:54:38;;;;;;;7.00;5.60;;;;;;;11.10;62.84;95307.09;5045531;28;20069;-75
2023/05/05 01:57:04;;;;;;;7.35;5.22;;;;;;;11.05;62.93;95305.63;5027632;28;20294;-73
2023/05/05 01:59:31;;;;;;;7.25;5.55;;;;;;;11.02;62.67;95298.25;5045913;28;20036;-73
2023/05/05 02:01:59;;;;;;;7.93;5.40;;;;;;;11.01;62.70;95307.69;5043253;28;20052;-73
2023/05/05 02:04:26;;;;;;;6.47;5.20;;;;;;;11.01;62.54;95307.69;5029016;28;20500;-73
2023/05/05 02:06:53;;;;;;;8.48;5.25;;;;;;;10.98;62.52;95305.81;5045294;28;20021;-74
2023/05/05 02:09:19;;;;;;;7.93;5.10;;;;;;;10.97;62.27;95303.50;5045163;28;20127;-73
2023/05/05 02:11:45;;;;;;;6.65;4.68;;;;;;;10.95;62.51;95306.66;5044714;28;20033;-74
2023/05/05 02:14:11;;;;;;;7.07;5.57;;;;;;;10.95;62.42;95306.66;5044221;28;20031;-74
2023/05/05 02:16:39;;;;;;;6.63;4.85;;;;;;;10.94;62.33;95309.84;5045363;28;20040;-74
2023/05/05 02:19:05;;;;;;;7.13;4.95;;;;;;;10.94;62.42;95307.84;5043268;28;20507;-74
2023/05/05 02:21:32;;;;;;;6.97;4.80;;;;;;;10.94;62.48;95299.59;5045124;28;20094;-74
2023/05/05 02:23:57;;;;;;;7.07;4.97;;;;;;;10.92;62.55;95304.78;5043509;28;20527;-74
2023/05/05 02:26:23;;;;;;;11.45;5.40;;;;;;;10.91;62.41;95300.47;5044940;28;20108;-73
2023/05/05 02:29:06;;;;;;;7.80;5.85;;;;;;;10.92;62.46;95304.00;5027313;28;20472;-74
2023/05/05 02:31:34;;;;;;;6.85;5.30;;;;;;;10.83;62.55;95302.59;5045764;28;20069;-74
2023/05/05 02:34:00;;;;;;;8.27;5.00;;;;;;;10.84;62.27;95298.69;5045150;28;20664;-74
2023/05/05 02:36:28;;;;;;;5.25;4.47;;;;;;;10.86;62.36;95298.25;5042684;28;20082;-74
2023/05/05 02:38:57;;;;;;;5.35;4.40;;;;;;;10.82;62.34;95292.03;5045158;28;20131;-73
2023/05/05 02:41:23;;;;;;;14.98;5.20;;;;;;;10.81;62.26;95298.75;5025563;28;20033;-74
2023/05/05 02:43:50;;;;;;;6.05;4.95;;;;;;;10.81;62.19;95302.28;5028152;28;20029;-74
2023/05/05 02:46:16;;;;;;;6.93;4.78;;;;;;;10.78;62.11;95297.66;5043642;28;20044;-74
2023/05/05 02:48:41;;;;;;;5.35;3.97;;;;;;;10.78;61.82;95296.84;5045324;28;20024;-75
2023/05/05 02:51:07;;;;;;;6.72;4.20;;;;;;;10.81;61.59;95304.25;5046034;28;20032;-74
2023/05/05 02:53:33;;;;;;;5.63;4.53;;;;;;;10.82;61.29;95295.56;5042948;28;20488;-74
2023/05/05 02:56:33;;;;;;;6.53;4.18;;;;;;;10.84;61.59;95300.66;5044887;28;20021;-73
2023/05/05 02:59:36;;;;;;;5.82;4.38;;;;;;;10.86;61.87;95295.50;5035026;28;20064;-73
2023/05/05 03:02:10;;;;;;;8.80;4.95;;;;;;;10.85;61.96;95297.47;5044084;28;20052;-74
2023/05/05 03:04:41;;;;;;;7.57;5.85;;;;;;;10.86;62.17;95301.00;5045614;28;20025;-74
2023/05/05 03:07:13;;;;;;;6.53;5.38;;;;;;;10.89;62.40;95303.63;5042590;28;20427;-74
2023/05/05 03:09:50;;;;;;;7.65;6.22;;;;;;;10.95;62.31;95301.16;5043796;28;20029;-74
2023/05/05 03:12:20;;;;;;;9.88;5.90;;;;;;;10.97;62.62;95306.25;5044018;28;20032;-74
2023/05/05 03:14:47;;;;;;;8.73;6.03;;;;;;;10.98;62.61;95305.03;5044611;28;20040;-73
2023/05/05 03:17:13;;;;;;;8.20;6.32;;;;;;;11.00;62.58;95303.38;5044487;28;20108;-73
2023/05/05 03:19:43;;;;;;;7.60;6.18;;;;;;;11.04;62.53;95297.81;5041846;28;20024;-74
2023/05/05 03:22:15;;;;;;;8.95;6.68;;;;;;;11.07;62.45;95303.22;5044705;28;20418;-74
2023/05/05 03:24:40;;;;;;;8.52;5.95;;;;;;;11.04;62.21;95300.56;5044079;28;20035;-74
2023/05/05 03:27:05;;;;;;;8.80;6.15;;;;;;;11.03;62.06;95301.75;5047260;28;20029;-74
2023/05/05 03:29:31;;;;;;;8.75;5.60;;;;;;;11.04;61.99;95303.31;5044291;28;20505;-75
2023/05/05 03:31:57;;;;;;;10.90;6.18;;;;;;;11.03;62.07;95305.28;5044560;28;20025;-73
2023/05/05 03:34:22;;;;;;;8.23;5.72;;;;;;;11.04;61.89;95306.06;5043955;28;20139;-74
2023/05/05 03:36:48;;;;;;;10.15;5.95;;;;;;;11.07;61.90;95313.47;5043594;28;20025;-75
2023/05/05 03:39:13;;;;;;;9.05;6.32;;;;;;;11.06;61.98;95306.38;5044047;28;20462;-73
2023/05/05 03:41:38;;;;;;;8.07;6.53;;;;;;;11.08;61.90;95304.78;5042845;28;20541;-74
2023/05/05 03:44:04;;;;;;;6.70;5.72;;;;;;;11.00;62.07;95302.59;5044027;28;20109;-74
2023/05/05 03:46:29;;;;;;;8.07;5.53;;;;;;;11.01;61.91;95304.16;5043827;28;20029;-74
2023/05/05 03:48:56;;;;;;;9.27;5.88;;;;;;;11.04;61.96;95303.31;5043384;28;20033;-74
2023/05/05 03:51:22;;;;;;;9.05;5.93;;;;;;;11.06;61.93;95303.63;5044543;28;20488;-74
2023/05/05 03:53:48;;;;;;;8.48;6.25;;;;;;;11.08;62.09;95315.00;5042070;28;20029;-74
2023/05/05 03:56:13;;;;;;;9.07;6.28;;;;;;;11.11;62.04;95311.38;5043823;28;20508;-74
2023/05/05 03:58:39;;;;;;;11.10;6.68;;;;;;;11.13;61.94;95318.00;5041603;28;20032;-73
2023/05/05 04:01:04;;;;;;;7.90;5.72;;;;;;;11.12;62.17;95316.44;5042410;28;20045;-74
2023/05/05 04:03:30;;;;;;;9.88;6.15;;;;;;;11.16;62.04;95319.13;5042866;28;20456;-74
2023/05/05 04:05:55;;;;;;;8.93;7.35;;;;;;;11.17;62.10;95326.16;5026881;28;20057;-75
2023/05/05 04:08:20;;;;;;;13.20;7.18;;;;;;;11.20;62.22;95327.28;5042026;28;20601;-74
2023/05/05 04:10:46;;;;;;;12.23;8.27;;;;;;;11.22;62.34;95328.41;5044150;28;20027;-74
2023/05/05 04:13:11;;;;;;;10.18;7.57;;;;;;;11.13;62.57;95322.75;5044785;28;20454;-74
2023/05/05 04:15:37;;;;;;;9.02;7.55;;;;;;;11.01;62.93;95324.22;5042982;28;20113;-74
2023/05/05 04:18:02;;;;;;;8.55;6.95;;;;;;;11.09;62.85;95322.81;5043786;28;20078;-74
2023/05/05 04:20:28;;;;;;;10.75;7.95;;;;;;;11.16;62.90;95332.88;5044823;28;20105;-73
2023/05/05 04:22:53;;;;;;;12.13;6.53;;;;;;;11.14;62.83;95335.28;5043593;28;20060;-73
2023/05/05 04:25:19;;;;;;;8.90;7.07;;;;;;;11.16;62.57;95330.88;5042992;28;20029;-74
2023/05/05 04:27:44;;;;;;;9.52;6.63;;;;;;;11.04;62.54;95333.56;5044440;28;20025;-74
2023/05/05 04:30:10;;;;;;;9.60;7.05;;;;;;;11.15;62.34;95331.34;5042352;28;20104;-74
2023/05/05 04:32:35;;;;;;;11.25;6.95;;;;;;;11.03;62.43;95332.03;5040497;28;20078;-73
2023/05/05 04:35:01;;;;;;;8.43;6.75;;;;;;;10.98;62.69;95333.31;5043419;28;20025;-75
2023/05/05 04:37:26;;;;;;;9.73;7.10;;;;;;;11.06;62.20;95331.91;5043051;28;20563;-76
2023/05/05 04:39:52;;;;;;;8.10;6.55;;;;;;;11.13;62.11;95334.53;5043299;28;20051;-74
2023/05/05 04:42:17;;;;;;;10.15;7.10;;;;;;;11.23;61.77;95331.91;5042709;28;20567;-75
2023/05/05 04:44:42;;;;;;;10.75;7.60;;;;;;;11.32;61.57;95332.88;5042952;28;20029;-74
2023/05/05 04:47:08;;;;;;;12.35;7.78;;;;;;;11.38;61.42;95335.88;5041748;28;20032;-73
2023/05/05 04:49:33;;;;;;;12.82;6.93;;;;;;;11.43;61.21;95335.34;5042781;28;20502;-74
2023/05/05 04:51:59;;;;;;;10.05;7.22;;;;;;;11.51;61.15;95338.69;5025749;28;20340;-74
2023/05/05 04:54:24;;;;;;;9.80;7.32;;;;;;;11.55;61.09;95329.13;5042918;28;20393;-76
2023/05/05 04:56:50;;;;;;;10.73;7.43;;;;;;;11.61;61.09;95326.63;5044922;28;20103;-76
2023/05/05 04:59:15;;;;;;;11.00;7.57;;;;;;;11.68;60.97;95331.94;5042329;28;20028;-75
2023/05/05 05:01:41;;;;;;;12.25;7.43;;;;;;;11.74;60.93;95334.94;5043038;28;20049;-75
2023/05/05 05:04:07;;;;;;;13.27;8.45;;;;;;;11.81;60.49;95343.78;5041025;28;20025;-75
2023/05/05 05:06:32;;;;;;;12.10;9.30;;;;;;;11.86;60.46;95351.53;5045053;28;20029;-75
2023/05/05 05:08:58;;;;;;;10.38;7.72;;;;;;;11.92;60.21;95351.75;5044561;28;20033;-76
2023/05/05 05:11:24;;;;;;;11.32;7.20;;;;;;;11.97;60.10;95354.00;5046047;28;20507;-75
2023/05/05 05:13:49;;;;;;;8.95;7.65;;;;;;;12.00;59.73;95344.09;5045425;28;20029;-76
2023/05/05 05:16:15;;;;;;;9.15;6.55;;;;;;;12.00;59.68;95346.84;5048834;28;20044;-76
2023/05/05 05:18:40;;;;;;;8.88;6.82;;;;;;;12.02;59.48;95352.69;5048034;28;20083;-75
2023/05/05 05:21:06;;;;;;;9.65;6.75;;;;;;;12.09;59.57;95363.50;5045285;28;20029;-76
2023/05/05 05:23:31;;;;;;;12.68;7.75;;;;;;;12.19;59.23;95367.94;5046805;28;20027;-75
2023/05/05 05:25:57;;;;;;;9.35;6.82;;;;;;;12.21;59.18;95365.53;5027658;28;20040;-76
2023/05/05 05:28:22;;;;;;;9.90;7.72;;;;;;;12.25;59.09;95362.69;5046108;28;20155;-76
2023/05/05 05:30:48;;;;;;;12.25;7.50;;;;;;;12.32;58.79;95362.47;5045226;28;20120;-75
2023/05/05 05:33:13;;;;;;;10.57;7.88;;;;;;;12.39;58.62;95365.81;5046434;28;20108;-76
2023/05/05 05:35:39;;;;;;;9.65;7.40;;;;;;;12.39;58.53;95365.81;5029618;28;20112;-76
2023/05/05 05:38:05;;;;;;;11.88;7.40;;;;;;;12.43;57.99;95363.69;5045454;28;20032;-76
2023/05/05 05:40:30;;;;;;;9.50;7.30;;;;;;;12.51;58.16;95369.81;5046400;28;20060;-75
2023/05/05 05:42:56;;;;;;;10.68;7.03;;;;;;;12.57;57.89;95368.03;5045409;28;20400;-75
2023/05/05 05:45:21;;;;;;;9.75;6.90;;;;;;;12.61;57.81;95367.91;5046013;28;20097;-75
2023/05/05 05:47:46;;;;;;;12.57;6.40;;;;;;;12.64;57.56;95361.53;5044879;28;20213;-75
2023/05/05 05:50:12;;;;;;;8.85;6.82;;;;;;;12.63;57.19;95369.03;5046545;28;20484;-75
2023/05/05 05:52:38;;;;;;;10.82;6.75;;;;;;;12.69;57.12;95369.28;5045273;28;20033;-75
2023/05/05 05:55:04;;;;;;;12.15;6.32;;;;;;;12.76;56.92;95366.28;5045365;28;20064;-75
2023/05/05 05:57:29;;;;;;;12.25;6.82;;;;;;;12.81;56.75;95362.97;5047518;28;20029;-75
2023/05/05 05:59:54;;;;;;;6.72;5.95;;;;;;;12.84;56.46;95364.84;5044932;28;20059;-76
2023/05/05 06:02:20;;;;;;;9.00;6.63;;;;;;;12.71;56.74;95361.31;5047038;28;20083;-76
2023/05/05 06:04:46;;;;;;;8.85;5.85;;;;;;;12.82;56.65;95361.00;5045209;28;20060;-76
2023/05/05 06:07:11;;;;;;;8.68;6.20;;;;;;;12.92;56.65;95368.94;5045385;28;20075;-75
2023/05/05 06:09:37;;;;;;;7.82;6.43;;;;;;;13.01;56.47;95368.28;5048859;28;20032;-75
2023/05/05 06:12:02;;;;;;;9.57;6.88;;;;;;;13.12;56.22;95374.22;5047716;28;20112;-76
2023/05/05 06:14:28;;;;;;;9.45;6.63;;;;;;;13.16;56.10;95368.59;5045412;28;20033;-76
2023/05/05 06:16:54;;;;;;;7.50;5.85;;;;;;;13.21;56.17;95370.84;5042616;28;20037;-76
2023/05/05 06:19:20;;;;;;;12.77;6.43;;;;;;;13.39;55.82;95373.78;5046873;28;20021;-76
2023/05/05 06:21:45;;;;;;;6.90;5.57;;;;;;;13.37;55.07;95367.19;5026627;28;20044;-76
2023/05/05 06:24:11;;;;;;;6.97;5.05;;;;;;;13.36;55.24;95371.13;5046484;28;20410;-76
2023/05/05 06:26:36;;;;;;;10.38;6.00;;;;;;;13.53;54.84;95370.56;5043759;28;20060;-76
2023/05/05 06:29:02;;;;;;;8.82;5.45;;;;;;;13.68;55.01;95372.84;5045169;28;20488;-76
2023/05/05 06:31:27;;;;;;;6.05;5.00;;;;;;;13.83;54.37;95365.63;5044563;28;20036;-76
2023/05/05 06:33:53;;;;;;;7.43;5.25;;;;;;;14.01;53.99;95379.59;5043912;28;20025;-76
2023/05/05 06:36:18;;;;;;;8.68;5.88;;;;;;;13.96;54.06;95371.09;5044913;28;20036;-76
2023/05/05 06:38:43;;;;;;;7.70;5.65;;;;;;;14.17;53.68;95372.34;5044382;28;20025;-76
2023/05/05 06:41:09;;;;;;;9.80;6.45;;;;;;;14.26;53.93;95370.41;5045074;28;20028;-76
2023/05/05 06:43:34;;;;;;;9.05;4.85;;;;;;;14.39;53.31;95366.78;5043297;28;20144;-76
2023/05/05 06:46:00;;;;;;;5.68;4.63;;;;;;;14.49;52.51;95376.72;5046540;28;20037;-75
2023/05/05 06:48:25;;;;;;;4.90;4.03;;;;;;;14.61;51.66;95368.34;5043433;28;20472;-76
2023/05/05 06:50:51;;;;;;;7.65;4.47;;;;;;;14.73;51.73;95363.94;5045537;28;20112;-76
2023/05/05 06:53:16;;;;;;;4.85;3.60;;;;;;;14.86;51.37;95361.88;5045593;28;20380;-76
2023/05/05 06:55:44;;;;;;;6.13;3.38;;;;;;;14.93;50.79;95363.56;5044587;28;20478;-76
2023/05/05 06:58:10;;;;;;;5.93;3.95;;;;;;;15.01;50.84;95358.53;5045970;28;20020;-75
2023/05/05 07:00:37;;;;;;;3.28;2.33;;;;;;;15.07;49.94;95354.69;5043678;28;20522;-75
2023/05/05 07:03:02;;;;;;;2.70;2.08;;;;;;;14.99;49.55;95341.59;5044682;28;20099;-75
2023/05/05 07:05:27;;;;;;;4.13;2.72;;;;;;;15.09;49.70;95359.81;5047095;28;20568;-74
2023/05/05 07:07:54;;;;;;;3.05;2.28;;;;;;;15.21;49.59;95355.38;5044894;28;20491;-74
2023/05/05 07:10:20;;;;;;;3.17;2.28;;;;;;;15.29;49.09;95351.84;5043312;28;20055;-75
2023/05/05 07:12:46;;;;;;;2.97;2.05;;;;;;;15.31;48.53;95346.66;5043440;28;20063;-75
2023/05/05 07:15:11;;;;;;;3.35;2.28;;;;;;;15.39;49.13;95347.13;5045623;28;20396;-76
2023/05/05 07:17:37;;;;;;;4.10;2.28;;;;;;;15.51;48.65;95348.97;5042532;28;20036;-76
2023/05/05 07:20:02;;;;;;;3.22;2.30;;;;;;;15.63;48.42;95341.78;5027869;28;20037;-76
2023/05/05 07:22:28;;;;;;;3.70;2.25;;;;;;;15.70;48.40;95347.03;5043635;28;20048;-76
2023/05/05 07:24:53;;;;;;;5.00;2.97;;;;;;;15.82;48.31;95339.78;5045467;28;20032;-76
2023/05/05 07:27:21;;;;;;;5.28;3.40;;;;;;;15.97;47.91;95343.50;5042541;28;20024;-76
2023/05/05 07:29:47;;;;;;;8.40;4.78;;;;;;;16.13;47.90;95345.19;5044687;28;20163;-76
2023/05/05 07:32:12;;;;;;;6.43;3.90;;;;;;;16.30;47.53;95353.97;5043889;28;20108;-76
2023/05/05 07:34:39;;;;;;;5.22;3.20;;;;;;;16.42;47.71;95353.03;5044628;28;20051;-76
2023/05/05 07:37:05;;;;;;;3.08;2.40;;;;;;;16.40;46.80;95347.16;5044228;28;20025;-76
2023/05/05 07:39:31;;;;;;;3.40;2.45;;;;;;;16.22;46.74;95358.28;5041799;28;20436;-76
2023/05/05 07:41:57;;;;;;;2.75;2.17;;;;;;;16.54;46.72;95367.97;5027344;28;20505;-76
2023/05/05 07:44:22;;;;;;;7.20;2.88;;;;;;;16.75;46.51;95353.13;5043619;28;20067;-76
2023/05/05 07:46:47;;;;;;;4.78;3.08;;;;;;;16.92;46.64;95362.66;5045335;28;20411;-76
2023/05/05 07:49:13;;;;;;;4.65;3.13;;;;;;;16.99;45.74;95364.31;5044674;28;20036;-76
2023/05/05 07:51:38;;;;;;;4.60;3.45;;;;;;;17.03;45.97;95364.91;5044097;28;20111;-75
2023/05/05 07:54:04;;;;;;;5.68;3.08;;;;;;;16.95;46.11;95369.25;5043744;28;20399;-76
2023/05/05 07:56:30;;;;;;;4.75;3.33;;;;;;;16.90;45.96;95361.56;5042960;28;20024;-76
2023/05/05 07:58:55;;;;;;;4.78;3.47;;;;;;;17.08;45.89;95369.06;5044061;28;20025;-75
2023/05/05 08:01:21;;;;;;;5.47;3.30;;;;;;;16.87;45.13;95359.75;5047512;28;20053;-76
2023/05/05 08:03:46;;;;;;;3.38;2.38;;;;;;;17.04;45.33;95360.91;5044040;28;20033;-77
2023/05/05 08:06:14;;;;;;;5.35;3.33;;;;;;;17.04;45.60;95357.38;5043695;28;20044;-75
2023/05/05 08:08:40;;;;;;;4.13;3.28;;;;;;;17.04;45.07;95362.91;5042776;28;20424;-75
2023/05/05 08:11:06;;;;;;;4.22;2.97;;;;;;;17.07;45.32;95353.63;5026670;28;20036;-75
2023/05/05 08:13:32;;;;;;;6.10;3.05;;;;;;;17.11;45.15;95357.78;5042003;28;20086;-76
2023/05/05 08:15:57;;;;;;;4.60;2.85;;;;;;;17.15;45.00;95363.19;5043828;28;20025;-76
2023/05/05 08:18:23;;;;;;;5.60;3.53;;;;;;;17.20;44.80;95352.19;5043258;28;20022;-75
2023/05/05 08:20:49;;;;;;;5.90;3.30;;;;;;;17.18;44.75;95351.88;5043448;28;20340;-74
2023/05/05 08:23:16;;;;;;;4.70;2.63;;;;;;;17.35;44.39;95354.28;5043132;28;20031;-77
2023/05/05 08:25:42;;;;;;;5.43;3.17;;;;;;;17.29;44.50;95348.59;5043156;28;20028;-77
2023/05/05 08:28:07;;;;;;;3.47;2.60;;;;;;;17.28;44.90;95335.19;5042606;28;20025;-76
2023/05/05 08:30:33;;;;;;;6.35;3.05;;;;;;;17.40;44.46;95334.94;5042379;28;20056;-76
2023/05/05 08:32:59;;;;;;;5.82;3.25;;;;;;;17.50;44.73;95342.00;5044949;28;20025;-77
2023/05/05 08:35:24;;;;;;;4.53;2.80;;;;;;;17.59;44.08;95338.38;5025199;28;20021;-76
2023/05/05 08:37:50;;;;;;;7.20;3.20;;;;;;;17.72;43.94;95338.16;5043533;28;20104;-77
2023/05/05 08:40:16;;;;;;;6.40;3.42;;;;;;;17.77;44.17;95331.94;5043866;28;20025;-76
2023/05/05 08:42:43;;;;;;;6.25;3.72;;;;;;;17.87;44.26;95330.66;5030751;28;20463;-77
2023/05/05 08:45:09;;;;;;;6.18;3.08;;;;;;;17.84;44.07;95336.41;5047090;28;20033;-77
2023/05/05 08:47:35;;;;;;;5.00;3.00;;;;;;;17.82;44.04;95341.66;5046481;28;20060;-76
2023/05/05 08:50:01;;;;;;;4.43;2.75;;;;;;;18.00;43.62;95339.50;5030219;28;20029;-76
2023/05/05 08:52:31;;;;;;;4.60;2.33;;;;;;;18.11;43.39;95332.63;5045609;28;20036;-76
2023/05/05 08:55:01;;;;;;;3.63;2.47;;;;;;;18.15;43.09;95338.78;5047337;28;20464;-76
2023/05/05 08:57:45;;;;;;;5.47;2.33;;;;;;;18.29;43.04;95330.47;5049451;28;20029;-77
2023/05/05 09:00:10;;;;;;;;;;;;;;;18.40;42.48;95334.66;5047560;28;20048;-76
2023/05/05 09:02:36;;;;;;;5.53;2.72;;;;;;;18.35;43.04;95332.53;5045423;28;20513;-75
2023/05/05 09:05:04;;;;;;;3.20;2.03;;;;;;;18.43;43.42;95334.50;5046075;28;20044;-75
2023/05/05 09:07:31;;;;;;;7.18;3.80;;;;;;;18.66;43.28;95338.44;5047859;28;20549;-75
2023/05/05 09:09:58;;;;;;;5.50;2.50;;;;;;;18.98;42.15;95336.72;5044590;28;20027;-76
2023/05/05 09:12:24;;;;;;;4.50;2.42;;;;;;;19.02;41.63;95333.72;5047009;28;20052;-76
2023/05/05 09:14:50;;;;;;;3.47;2.40;;;;;;;19.05;41.72;95330.75;5045805;28;20037;-76
2023/05/05 09:17:23;;;;;;;5.72;2.67;;;;;;;19.17;41.26;95328.91;5048128;28;20021;-76
2023/05/05 09:19:58;;;;;;;;;;;;;;;19.52;40.43;95316.97;5045317;28;20144;-75
2023/05/05 09:22:32;;;;;;;6.85;3.10;;;;;;;19.43;39.96;95312.28;5028805;28;20362;-75
2023/05/05 09:24:57;;;;;;;;;;;;;;;19.54;39.95;95322.81;5046702;28;20029;-77
2023/05/05 09:27:23;;;;;;;6.90;3.22;;;;;;;19.81;39.80;95311.28;5027841;28;19928;-76
2023/05/05 09:29:48;;;;;;;7.55;3.65;;;;;;;19.76;39.67;95309.19;5046414;28;20117;-75
2023/05/05 09:32:14;;;;;;;5.90;3.70;;;;;;;19.76;39.76;95311.22;5027741;28;20044;-76
2023/05/05 09:34:39;;;;;;;5.90;3.47;;;;;;;19.93;38.88;95320.56;5048005;28;20118;-76
2023/05/05 09:37:05;;;;;;;4.97;2.10;;;;;;;20.41;38.16;95314.47;5044773;28;20507;-76
2023/05/05 09:39:30;;;;;;;3.22;1.88;;;;;;;20.57;38.38;95315.91;5047214;28;20086;-77
2023/05/05 09:41:57;;;;;;;2.55;1.90;;;;;;;20.87;37.61;95314.44;5045556;28;20048;-76
2023/05/05 09:44:36;;;;;;;3.28;1.90;;;;;;;21.07;37.30;95305.16;5046135;28;20021;-76
2023/05/05 09:47:01;;;;;;;3.35;2.83;;;;;;;21.39;36.54;95316.31;5047049;28;20090;-75
2023/05/05 09:49:27;;;;;;;5.85;2.08;;;;;;;21.53;36.22;95311.84;5044075;28;20025;-76
2023/05/05 09:51:53;;;;;;;3.28;2.10;;;;;;;21.75;35.47;95303.56;5053962;28;20032;-76
2023/05/05 09:54:27;;;;;;;4.65;2.47;;;;;;;21.85;34.82;95302.09;5027959;28;20360;-77
2023/05/05 09:56:53;;;;;;;2.83;1.70;;;;;;;22.17;33.91;95308.31;5046564;28;20101;-77
2023/05/05 09:59:19;;;;;;;5.88;2.60;;;;;;;22.29;34.04;95297.16;5045513;28;20029;-76
2023/05/05 10:01:45;;;;;;;3.83;2.50;;;;;;;22.47;33.33;95289.03;5027206;28;20049;-75
2023/05/05 10:04:30;;;;;;;4.82;2.50;;;;;;;22.23;33.37;95300.69;5045777;28;20053;-75
2023/05/05 10:06:57;;;;;;;2.58;1.90;;;;;;;21.99;33.73;95303.16;5043645;28;20021;-76
2023/05/05 10:09:26;;;;;;;9.30;2.90;;;;;;;21.80;33.38;95296.47;5046960;28;20060;-76
2023/05/05 10:11:52;;;;;;;5.75;2.67;;;;;;;21.72;33.79;95293.38;5044416;28;20429;-76
2023/05/05 10:14:18;;;;;;;2.45;1.70;;;;;;;21.81;33.56;95290.34;5046181;28;20033;-76
2023/05/05 10:16:51;;;;;;;1.80;1.40;;;;;;;21.45;33.52;95292.75;5045538;28;20132;-75
2023/05/05 10:19:18;;;;;;;2.95;2.20;;;;;;;21.54;34.30;95288.19;5043549;28;20120;-75
2023/05/05 10:21:50;;;;;;;3.60;2.45;;;;;;;21.52;34.31;95276.75;5045756;28;20029;-76
2023/05/05 10:24:37;;;;;;;5.25;2.92;;;;;;;21.43;34.66;95275.69;5043653;28;20111;-76
2023/05/05 10:27:07;;;;;;;4.65;2.15;;;;;;;21.00;35.40;95274.88;5044711;28;20112;-76
2023/05/05 10:29:41;;;;;;;3.83;2.10;;;;;;;20.98;35.49;95282.22;5044983;28;20017;-75
2023/05/05 10:32:38;;;;;;;5.55;2.28;;;;;;;21.10;35.46;95281.03;5043250;28;20020;-75
2023/05/05 10:35:07;;;;;;;2.25;1.67;;;;;;;20.99;35.25;95283.75;5045517;28;20063;-76
2023/05/05 10:37:33;;;;;;;4.50;2.28;;;;;;;20.94;35.26;95274.09;5043623;28;20021;-76
2023/05/05 10:40:00;;;;;;;3.53;1.98;;;;;;;21.31;35.10;95271.28;5044432;28;20029;-75
2023/05/05 10:42:26;;;;;;;3.70;2.00;;;;;;;21.65;35.28;95271.47;5044338;28;20055;-76
2023/05/05 10:44:52;;;;;;;2.72;1.58;;;;;;;21.60;34.21;95267.38;5043629;28;20380;-76
2023/05/05 10:47:19;;;;;;;2.28;1.42;;;;;;;21.54;34.07;95274.22;5052486;28;20060;-76
2023/05/05 10:50:12;;;;;;;4.43;2.13;;;;;;;21.52;33.94;95276.75;5043353;28;20024;-77
2023/05/05 10:52:53;;;;;;;2.67;1.77;;;;;;;21.41;34.52;95275.41;5046615;28;20040;-76
2023/05/05 10:55:21;;;;;;;2.50;1.60;;;;;;;21.49;33.84;95278.50;5027478;28;20040;-76
2023/05/05 10:57:52;;;;;;;2.17;1.73;;;;;;;21.61;34.47;95279.31;5043648;28;20523;-75
2023/05/05 11:00:36;;;;;;;2.42;1.90;;;;;;;21.67;34.45;95275.28;5027661;28;20033;-76
2023/05/05 11:03:17;;;;;;;2.38;1.38;;;;;;;21.82;34.08;95271.53;5043393;28;20107;-75
2023/05/05 11:06:11;;;;;;;2.67;1.92;;;;;;;21.96;33.95;95274.16;5045776;28;20033;-75
2023/05/05 11:08:41;;;;;;;3.05;1.33;;;;;;;22.00;33.52;95266.25;5043411;28;20064;-77
2023/05/05 11:11:11;;;;;;;5.15;1.90;;;;;;;22.26;34.18;95259.75;5042115;28;20419;-75
2023/05/05 11:13:38;;;;;;;2.28;1.58;;;;;;;22.31;33.99;95267.38;5044535;28;20024;-75
2023/05/05 11:16:04;;;;;;;3.30;1.95;;;;;;;22.40;33.72;95258.72;5042096;28;20121;-76
2023/05/05 11:18:43;;;;;;;3.22;1.73;;;;;;;22.79;33.28;95264.34;5044319;28;20087;-76
2023/05/05 11:21:15;;;;;;;4.40;2.08;;;;;;;22.93;33.83;95259.03;5042817;28;20053;-77
2023/05/05 11:23:48;;;;;;;2.60;1.85;;;;;;;22.84;32.68;95262.84;5044650;28;20021;-76
2023/05/05 11:26:15;;;;;;;2.58;1.50;;;;;;;22.64;32.30;95258.22;5027442;28;20059;-76
2023/05/05 11:29:00;;;;;;;3.25;2.00;;;;;;;22.93;33.21;95256.22;5025679;28;20406;-76
2023/05/05 11:31:26;;;;;;;10.80;4.18;;;;;;;23.03;32.75;95249.84;5043791;28;20464;-76
2023/05/05 11:33:52;;;;;;;5.10;2.80;;;;;;;23.22;32.54;95255.66;5042769;28;20028;-76
2023/05/05 11:36:18;;;;;;;7.93;4.10;;;;;;;23.42;33.37;95257.41;5043396;28;20025;-75
2023/05/05 11:39:10;;;;;;;3.90;2.53;;;;;;;23.95;31.46;95252.66;5043482;28;20515;-75